createdAt,value
2022-12-31T00:00:01.293Z,23.3
2022-12-31T00:01:03.554Z,23.4
2022-12-31T00:02:06.175Z,23.3
2022-12-31T00:03:09.551Z,23.3
2022-12-31T00:04:12.598Z,23.4
2022-12-31T00:05:15.562Z,23.4
2022-12-31T00:06:17.794Z,23.3
2022-12-31T00:07:20.032Z,23.3
2022-12-31T00:08:22.060Z,23.3
2022-12-31T00:09:24.624Z,23.4
2022-12-31T00:10:26.874Z,23.4
2022-12-31T00:11:29.390Z,23.3
2022-12-31T00:12:31.618Z,23.5
2022-12-31T00:13:33.857Z,23.4
2022-12-31T00:14:36.372Z,23.3
2022-12-31T00:15:38.866Z,23.4
2022-12-31T00:16:41.140Z,23.3
2022-12-31T00:17:43.755Z,23.4
2022-12-31T00:18:45.988Z,23.3
2022-12-31T00:19:48.506Z,23.4
2022-12-31T00:20:51.134Z,23.4
2022-12-31T00:21:53.372Z,23.4
2022-12-31T00:22:55.888Z,23.5
2022-12-31T00:23:58.148Z,23.4
2022-12-31T00:25:00.403Z,23.4
2022-12-31T00:26:02.954Z,23.5
2022-12-31T00:27:05.513Z,23.5
2022-12-31T00:28:07.749Z,23.5
2022-12-31T00:29:10.287Z,23.5
2022-12-31T00:30:12.845Z,23.4
2022-12-31T00:31:15.832Z,23.5
2022-12-31T00:32:18.273Z,23.4
2022-12-31T00:33:20.796Z,23.6
2022-12-31T00:34:23.328Z,23.5
2022-12-31T00:35:25.559Z,23.5
2022-12-31T00:36:28.405Z,23.6
2022-12-31T00:37:30.920Z,23.5
2022-12-31T00:38:33.174Z,23.5
2022-12-31T00:39:35.667Z,23.6
2022-12-31T00:40:37.598Z,23.7
2022-12-31T00:41:40.109Z,23.6
2022-12-31T00:42:42.683Z,23.7
2022-12-31T00:43:44.956Z,23.8
2022-12-31T00:44:47.480Z,23.7
2022-12-31T00:45:50.006Z,23.7
2022-12-31T00:46:52.540Z,23.7
2022-12-31T00:47:54.564Z,23.6
2022-12-31T00:48:56.841Z,23.6
2022-12-31T00:49:59.372Z,23.5
2022-12-31T00:51:01.623Z,23.8
2022-12-31T00:52:04.239Z,23.7
2022-12-31T00:53:06.740Z,23.7
2022-12-31T00:54:09.020Z,23.6
2022-12-31T00:55:11.561Z,23.7
2022-12-31T00:56:13.784Z,23.8
2022-12-31T00:57:16.344Z,23.6
2022-12-31T00:58:18.347Z,23.7
2022-12-31T00:59:20.849Z,23.6
2022-12-31T01:00:22.793Z,23.7
2022-12-31T01:01:25.454Z,23.6
2022-12-31T01:02:28.773Z,23.6
2022-12-31T01:03:32.561Z,23.6
2022-12-31T01:04:35.020Z,23.7
2022-12-31T01:05:37.278Z,23.8
2022-12-31T01:06:39.519Z,23.8
2022-12-31T01:07:42.144Z,23.8
2022-12-31T01:08:44.677Z,23.8
2022-12-31T01:09:47.222Z,23.7
2022-12-31T01:10:49.772Z,23.7
2022-12-31T01:11:52.036Z,23.8
2022-12-31T01:12:54.555Z,23.6
2022-12-31T01:13:57.094Z,23.7
2022-12-31T01:14:59.620Z,23.6
2022-12-31T01:16:02.274Z,23.7
2022-12-31T01:17:05.149Z,23.7
2022-12-31T01:18:07.386Z,23.6
2022-12-31T01:19:10.031Z,23.8
2022-12-31T01:20:12.581Z,23.6
2022-12-31T01:21:15.139Z,23.7
2022-12-31T01:22:17.391Z,23.8
2022-12-31T01:23:19.992Z,23.7
2022-12-31T01:24:22.231Z,23.8
2022-12-31T01:25:24.468Z,23.6
2022-12-31T01:26:26.799Z,23.6
2022-12-31T01:27:29.308Z,23.7
2022-12-31T01:28:31.829Z,23.7
2022-12-31T01:29:34.171Z,23.8
2022-12-31T01:30:36.786Z,23.8
2022-12-31T01:31:39.603Z,23.9
2022-12-31T01:32:42.089Z,23.8
2022-12-31T01:33:44.599Z,23.8
2022-12-31T01:34:46.858Z,23.7
2022-12-31T01:35:49.071Z,23.9
2022-12-31T01:36:51.594Z,23.7
2022-12-31T01:37:54.178Z,23.8
2022-12-31T01:38:56.840Z,23.8
2022-12-31T01:39:59.361Z,23.6
2022-12-31T01:41:01.602Z,23.6
2022-12-31T01:42:03.557Z,23.7
2022-12-31T01:43:05.765Z,23.7
2022-12-31T01:44:08.288Z,23.9
2022-12-31T01:45:10.812Z,23.7
2022-12-31T01:46:13.329Z,23.5
2022-12-31T01:47:16.066Z,23.8
2022-12-31T01:48:18.576Z,23.8
2022-12-31T01:49:21.141Z,23.7
2022-12-31T01:50:23.530Z,23.7
2022-12-31T01:51:25.810Z,23.8
2022-12-31T01:52:28.316Z,23.9
2022-12-31T01:53:30.867Z,23.8
2022-12-31T01:54:33.502Z,23.6
2022-12-31T01:55:35.735Z,23.8
2022-12-31T01:56:37.983Z,23.8
2022-12-31T01:57:40.497Z,23.7
2022-12-31T01:58:42.991Z,23.8
2022-12-31T01:59:45.590Z,23.6
2022-12-31T02:00:48.185Z,23.9
2022-12-31T02:01:50.793Z,23.8
2022-12-31T02:02:53.697Z,23.7
2022-12-31T02:03:56.618Z,23.7
2022-12-31T02:04:59.135Z,23.7
2022-12-31T02:06:01.741Z,23.8
2022-12-31T02:07:04.268Z,23.7
2022-12-31T02:08:06.545Z,23.6
2022-12-31T02:09:08.214Z,23.7
2022-12-31T02:10:10.588Z,23.5
2022-12-31T02:11:12.843Z,23.7
2022-12-31T02:12:15.337Z,23.9
2022-12-31T02:13:17.574Z,23.8
2022-12-31T02:14:19.780Z,23.7
2022-12-31T02:15:22.297Z,23.8
2022-12-31T02:16:24.860Z,23.8
2022-12-31T02:17:27.324Z,23.8
2022-12-31T02:18:29.589Z,23.9
2022-12-31T02:19:32.095Z,23.8
2022-12-31T02:20:34.611Z,23.7
2022-12-31T02:21:37.153Z,23.8
2022-12-31T02:22:39.897Z,23.8
2022-12-31T02:23:42.625Z,23.9
2022-12-31T02:24:45.110Z,23.9
2022-12-31T02:25:47.434Z,23.9
2022-12-31T02:26:49.949Z,23.8
2022-12-31T02:27:52.476Z,23.9
2022-12-31T02:28:54.980Z,23.6
2022-12-31T02:29:57.223Z,23.9
2022-12-31T02:30:59.491Z,23.6
2022-12-31T02:32:01.943Z,23.6
2022-12-31T02:33:04.177Z,23.6
2022-12-31T02:34:06.147Z,23.7
2022-12-31T02:35:08.409Z,23.9
2022-12-31T02:36:10.679Z,23.8
2022-12-31T02:37:13.173Z,23.7
2022-12-31T02:38:15.669Z,23.8
2022-12-31T02:39:17.886Z,23.8
2022-12-31T02:40:20.397Z,23.8
2022-12-31T02:41:23.025Z,23.8
2022-12-31T02:42:25.523Z,23.9
2022-12-31T02:43:28.027Z,23.8
2022-12-31T02:44:30.547Z,23.9
2022-12-31T02:45:33.123Z,23.9
2022-12-31T02:46:35.419Z,23.9
2022-12-31T02:47:38.062Z,23.8
2022-12-31T02:48:40.290Z,23.8
2022-12-31T02:49:42.867Z,23.9
2022-12-31T02:50:45.081Z,23.9
2022-12-31T02:51:47.612Z,23.8
2022-12-31T02:52:49.847Z,23.8
2022-12-31T02:53:52.059Z,23.8
2022-12-31T02:54:54.593Z,23.9
2022-12-31T02:55:56.249Z,23.9
2022-12-31T02:56:58.605Z,23.9
2022-12-31T02:58:00.847Z,23.9
2022-12-31T02:59:03.394Z,23.9
2022-12-31T03:00:05.900Z,23.8
2022-12-31T03:01:07.670Z,23.9
2022-12-31T03:02:10.496Z,23.9
2022-12-31T03:03:13.747Z,23.9
2022-12-31T03:04:16.277Z,23.9
2022-12-31T03:05:18.499Z,23.8
2022-12-31T03:06:20.756Z,24
2022-12-31T03:07:23.313Z,24
2022-12-31T03:08:25.587Z,24
2022-12-31T03:09:28.131Z,23.8
2022-12-31T03:10:30.350Z,24
2022-12-31T03:11:32.627Z,23.9
2022-12-31T03:12:35.231Z,23.9
2022-12-31T03:13:37.737Z,23.9
2022-12-31T03:14:40.258Z,24
2022-12-31T03:15:42.737Z,23.9
2022-12-31T03:16:44.698Z,24
2022-12-31T03:17:46.632Z,23.9
2022-12-31T03:18:48.901Z,23.9
2022-12-31T03:19:51.151Z,23.9
2022-12-31T03:20:53.651Z,23.9
2022-12-31T03:21:56.158Z,23.9
2022-12-31T03:22:58.092Z,23.9
2022-12-31T03:24:00.051Z,23.8
2022-12-31T03:25:02.301Z,23.8
2022-12-31T03:26:04.530Z,24
2022-12-31T03:27:06.748Z,23.8
2022-12-31T03:28:09.568Z,23.9
2022-12-31T03:29:11.894Z,23.9
2022-12-31T03:30:13.591Z,23.9
2022-12-31T03:31:16.546Z,23.8
2022-12-31T03:32:19.513Z,23.9
2022-12-31T03:33:21.748Z,23.9
2022-12-31T03:34:24.293Z,23.9
2022-12-31T03:35:26.796Z,24
2022-12-31T03:36:29.311Z,23.9
2022-12-31T03:37:31.841Z,23.8
2022-12-31T03:38:34.359Z,23.9
2022-12-31T03:39:36.580Z,23.9
2022-12-31T03:40:39.093Z,23.9
2022-12-31T03:41:41.630Z,23.9
2022-12-31T03:42:43.870Z,23.9
2022-12-31T03:43:46.520Z,23.9
2022-12-31T03:44:49.026Z,23.8
2022-12-31T03:45:51.705Z,23.9
2022-12-31T03:46:54.834Z,23.9
2022-12-31T03:47:57.319Z,23.8
2022-12-31T03:48:59.852Z,23.9
2022-12-31T03:50:02.382Z,24
2022-12-31T03:51:04.648Z,24
2022-12-31T03:52:06.866Z,23.9
2022-12-31T03:53:09.105Z,23.8
2022-12-31T03:54:11.824Z,23.9
2022-12-31T03:55:14.343Z,23.9
2022-12-31T03:56:16.611Z,23.9
2022-12-31T03:57:19.181Z,24
2022-12-31T03:58:21.719Z,23.9
2022-12-31T03:59:24.418Z,23.9
2022-12-31T04:00:26.913Z,23.9
2022-12-31T04:01:29.475Z,24
2022-12-31T04:02:32.809Z,24
2022-12-31T04:03:36.050Z,24
2022-12-31T04:04:38.557Z,23.9
2022-12-31T04:05:40.540Z,23.8
2022-12-31T04:06:43.061Z,24
2022-12-31T04:07:45.563Z,24
2022-12-31T04:08:47.803Z,23.9
2022-12-31T04:09:50.343Z,23.9
2022-12-31T04:10:52.614Z,24
2022-12-31T04:11:54.891Z,23.9
2022-12-31T04:12:57.424Z,23.9
2022-12-31T04:13:59.920Z,24
2022-12-31T04:15:02.271Z,23.9
2022-12-31T04:16:04.908Z,23.8
2022-12-31T04:17:07.622Z,23.8
2022-12-31T04:18:10.137Z,23.9
2022-12-31T04:19:12.459Z,23.8
2022-12-31T04:20:14.977Z,23.7
2022-12-31T04:21:17.564Z,23.8
2022-12-31T04:22:20.076Z,23.7
2022-12-31T04:23:22.313Z,23.9
2022-12-31T04:24:24.824Z,23.8
2022-12-31T04:25:27.343Z,23.7
2022-12-31T04:26:29.272Z,23.8
2022-12-31T04:27:31.765Z,23.9
2022-12-31T04:28:34.299Z,23.7
2022-12-31T04:29:36.802Z,24
2022-12-31T04:30:39.393Z,23.8
2022-12-31T04:31:41.981Z,23.9
2022-12-31T04:32:44.838Z,23.9
2022-12-31T04:33:47.080Z,23.9
2022-12-31T04:34:49.619Z,23.8
2022-12-31T04:35:52.154Z,23.8
2022-12-31T04:36:54.386Z,23.6
2022-12-31T04:37:56.903Z,23.9
2022-12-31T04:38:59.436Z,23.7
2022-12-31T04:40:05.720Z,23.8
2022-12-31T04:41:06.102Z,23.8
2022-12-31T04:42:08.634Z,23.8
2022-12-31T04:43:10.874Z,23.7
2022-12-31T04:44:13.387Z,23.6
2022-12-31T04:45:15.645Z,23.9
2022-12-31T04:46:18.314Z,23.8
2022-12-31T04:47:23.774Z,23.7
2022-12-31T04:48:26.272Z,23.8
2022-12-31T04:49:28.493Z,23.7
2022-12-31T04:50:30.991Z,23.7
2022-12-31T04:51:33.501Z,23.8
2022-12-31T04:52:42.264Z,23.5
2022-12-31T04:53:40.735Z,23.8
2022-12-31T04:54:42.975Z,23.7
2022-12-31T04:55:45.524Z,23.7
2022-12-31T04:56:48.064Z,23.8
2022-12-31T04:57:50.030Z,23.6
2022-12-31T04:58:52.242Z,23.7
2022-12-31T04:59:54.473Z,23.7
2022-12-31T05:00:56.147Z,23.8
2022-12-31T05:01:59.759Z,23.6
2022-12-31T05:03:03.765Z,23.8
2022-12-31T05:04:06.564Z,23.9
2022-12-31T05:05:09.067Z,23.7
2022-12-31T05:06:11.631Z,23.6
2022-12-31T05:07:14.125Z,23.7
2022-12-31T05:08:16.394Z,23.8
2022-12-31T05:09:18.693Z,23.6
2022-12-31T05:10:21.059Z,23.6
2022-12-31T05:11:23.574Z,23.7
2022-12-31T05:12:26.075Z,23.7
2022-12-31T05:13:33.062Z,23.5
2022-12-31T05:14:33.581Z,23.6
2022-12-31T05:15:35.523Z,23.6
2022-12-31T05:16:38.037Z,23.9
2022-12-31T05:17:40.930Z,23.9
2022-12-31T05:18:43.436Z,23.5
2022-12-31T05:19:45.944Z,23.7
2022-12-31T05:20:48.472Z,23.7
2022-12-31T05:21:51.030Z,23.8
2022-12-31T05:22:53.529Z,23.6
2022-12-31T05:23:56.060Z,23.6
2022-12-31T05:24:58.579Z,23.5
2022-12-31T05:26:01.197Z,23.6
2022-12-31T05:27:03.764Z,23.9
2022-12-31T05:28:06.249Z,23.7
2022-12-31T05:29:08.497Z,23.6
2022-12-31T05:30:10.429Z,23.5
2022-12-31T05:31:12.986Z,23.7
2022-12-31T05:32:15.877Z,23.7
2022-12-31T05:33:18.442Z,23.6
2022-12-31T05:34:20.954Z,23.5
2022-12-31T05:35:23.200Z,23.5
2022-12-31T05:36:25.421Z,23.6
2022-12-31T05:37:27.629Z,23.6
2022-12-31T05:38:30.168Z,23.6
2022-12-31T05:39:32.431Z,23.5
2022-12-31T05:40:34.919Z,23.7
2022-12-31T05:41:37.149Z,23.5
2022-12-31T05:42:39.676Z,23.5
2022-12-31T05:43:41.697Z,23.6
2022-12-31T05:44:44.233Z,23.4
2022-12-31T05:45:46.811Z,23.4
2022-12-31T05:46:49.308Z,23.6
2022-12-31T05:47:51.576Z,23.7
2022-12-31T05:48:54.168Z,23.6
2022-12-31T05:49:56.696Z,23.6
2022-12-31T05:50:58.946Z,23.5
2022-12-31T05:52:01.212Z,23.6
2022-12-31T05:53:03.737Z,23.5
2022-12-31T05:54:06.043Z,23.4
2022-12-31T05:55:08.296Z,23.6
2022-12-31T05:56:10.806Z,23.5
2022-12-31T05:57:13.057Z,23.4
2022-12-31T05:58:15.291Z,23.4
2022-12-31T05:59:17.581Z,23.3
2022-12-31T06:00:19.528Z,23.4
2022-12-31T06:01:21.865Z,23.4
2022-12-31T06:02:24.934Z,23.5
2022-12-31T06:03:27.713Z,23.5
2022-12-31T06:04:30.544Z,23.4
2022-12-31T06:05:32.766Z,23.4
2022-12-31T06:06:35.277Z,23.4
2022-12-31T06:07:37.802Z,23.4
2022-12-31T06:08:40.022Z,23.3
2022-12-31T06:09:42.309Z,23.4
2022-12-31T06:10:44.849Z,23.5
2022-12-31T06:11:47.387Z,23.6
2022-12-31T06:12:49.601Z,23.4
2022-12-31T06:13:51.531Z,23.4
2022-12-31T06:14:54.053Z,23.3
2022-12-31T06:15:55.798Z,23.4
2022-12-31T06:16:58.638Z,23.4
2022-12-31T06:18:00.594Z,23.4
2022-12-31T06:19:03.101Z,23.4
2022-12-31T06:20:10.601Z,23.4
2022-12-31T06:21:10.419Z,23.5
2022-12-31T06:22:12.941Z,23.4
2022-12-31T06:23:15.453Z,23.6
2022-12-31T06:24:17.990Z,23.4
2022-12-31T06:25:20.572Z,23.3
2022-12-31T06:26:22.911Z,23.4
2022-12-31T06:27:25.410Z,23.3
2022-12-31T06:28:27.897Z,23.4
2022-12-31T06:29:29.822Z,23.4
2022-12-31T06:30:32.059Z,23.4
2022-12-31T06:31:34.027Z,23.4
2022-12-31T06:32:36.812Z,23.3
2022-12-31T06:33:39.039Z,23.5
2022-12-31T06:34:41.269Z,23.5
2022-12-31T06:35:43.861Z,23.4
2022-12-31T06:36:46.090Z,23.4
2022-12-31T06:37:48.610Z,23.4
2022-12-31T06:38:51.115Z,23.4
2022-12-31T06:39:53.343Z,23.3
2022-12-31T06:40:55.840Z,23.5
2022-12-31T06:41:58.429Z,23.3
2022-12-31T06:43:00.736Z,23.2
2022-12-31T06:44:02.981Z,23.4
2022-12-31T06:45:04.935Z,23.3
2022-12-31T06:46:07.256Z,23.4
2022-12-31T06:47:10.123Z,23.3
2022-12-31T06:48:12.666Z,23.4
2022-12-31T06:49:14.881Z,23.4
2022-12-31T06:50:17.096Z,23.3
2022-12-31T06:51:19.811Z,23.5
2022-12-31T06:52:22.335Z,23.4
2022-12-31T06:53:24.567Z,23.3
2022-12-31T06:54:27.130Z,23.4
2022-12-31T06:55:29.652Z,23.5
2022-12-31T06:56:34.629Z,23.4
2022-12-31T06:57:36.952Z,23.3
2022-12-31T06:58:38.967Z,23.4
2022-12-31T06:59:41.483Z,23.3
2022-12-31T07:00:44.016Z,23.3
2022-12-31T07:01:46.671Z,23.4
2022-12-31T07:02:50.080Z,23.3
2022-12-31T07:03:53.196Z,23.3
2022-12-31T07:04:55.695Z,23.4
2022-12-31T07:05:58.210Z,23.4
2022-12-31T07:07:00.549Z,23.4
2022-12-31T07:08:03.080Z,23.4
2022-12-31T07:09:05.400Z,23.3
2022-12-31T07:10:07.670Z,23.3
2022-12-31T07:11:10.173Z,23.4
2022-12-31T07:12:12.432Z,23.4
2022-12-31T07:13:14.689Z,23.4
2022-12-31T07:14:17.199Z,23.3
2022-12-31T07:15:19.602Z,23.4
2022-12-31T07:16:21.855Z,23.3
2022-12-31T07:17:24.680Z,23.3
2022-12-31T07:18:27.179Z,23.3
2022-12-31T07:19:29.723Z,23.4
2022-12-31T07:20:31.989Z,23.5
2022-12-31T07:21:34.496Z,23.4
2022-12-31T07:22:37.176Z,23.4
2022-12-31T07:23:39.678Z,23.5
2022-12-31T07:24:42.199Z,23.3
2022-12-31T07:25:44.703Z,23.5
2022-12-31T07:26:51.197Z,23.4
2022-12-31T07:27:52.180Z,23.4
2022-12-31T07:28:54.776Z,23.3
2022-12-31T07:29:57.008Z,23.3
2022-12-31T07:30:59.312Z,23.3
2022-12-31T07:32:01.819Z,23.4
2022-12-31T07:33:04.081Z,23.3
2022-12-31T07:34:06.619Z,23.3
2022-12-31T07:35:08.592Z,23.4
2022-12-31T07:36:11.151Z,23.3
2022-12-31T07:37:13.679Z,23.3
2022-12-31T07:38:16.319Z,23.4
2022-12-31T07:39:18.558Z,23.4
2022-12-31T07:40:21.098Z,23.5
2022-12-31T07:41:23.644Z,23.4
2022-12-31T07:42:25.876Z,23.4
2022-12-31T07:43:28.094Z,23.4
2022-12-31T07:44:30.630Z,23.3
2022-12-31T07:45:33.141Z,23.2
2022-12-31T07:46:35.683Z,23.4
2022-12-31T07:47:38.438Z,23.3
2022-12-31T07:48:40.661Z,23.5
2022-12-31T07:49:43.201Z,23.4
2022-12-31T07:50:45.733Z,23.5
2022-12-31T07:51:48.246Z,23.4
2022-12-31T07:52:50.727Z,23.4
2022-12-31T07:53:53.423Z,23.4
2022-12-31T07:54:55.649Z,23.3
2022-12-31T07:55:58.185Z,23.4
2022-12-31T07:57:00.711Z,23.4
2022-12-31T07:58:02.978Z,23.4
2022-12-31T07:59:05.300Z,23.4
2022-12-31T08:00:07.861Z,23.4
2022-12-31T08:01:10.234Z,23.4
2022-12-31T08:02:13.850Z,23.4
2022-12-31T08:03:17.027Z,23.3
2022-12-31T08:04:19.522Z,23.4
2022-12-31T08:05:22.149Z,23.4
2022-12-31T08:06:24.133Z,23.3
2022-12-31T08:07:26.368Z,23.4
2022-12-31T08:08:28.883Z,23.5
2022-12-31T08:09:31.495Z,23.4
2022-12-31T08:10:33.468Z,23.4
2022-12-31T08:11:35.958Z,23.3
2022-12-31T08:12:38.488Z,23.5
2022-12-31T08:13:40.709Z,23.3
2022-12-31T08:14:42.663Z,23.4
2022-12-31T08:15:44.617Z,23.4
2022-12-31T08:16:46.900Z,23.3
2022-12-31T08:17:49.508Z,23.4
2022-12-31T08:18:52.126Z,23.2
2022-12-31T08:19:54.386Z,23.5
2022-12-31T08:20:56.624Z,23.4
2022-12-31T08:21:59.109Z,23.4
2022-12-31T08:23:01.647Z,23.5
2022-12-31T08:24:03.880Z,23.2
2022-12-31T08:25:06.200Z,23.3
2022-12-31T08:26:08.215Z,23.4
2022-12-31T08:27:10.826Z,23.3
2022-12-31T08:28:13.044Z,23.4
2022-12-31T08:29:15.550Z,23.4
2022-12-31T08:30:18.069Z,23.5
2022-12-31T08:31:20.687Z,23.4
2022-12-31T08:32:23.563Z,23.3
2022-12-31T08:33:26.068Z,23.4
2022-12-31T08:34:28.597Z,23.5
2022-12-31T08:35:30.544Z,23.3
2022-12-31T08:36:33.061Z,23.4
2022-12-31T08:37:34.983Z,23.3
2022-12-31T08:38:37.231Z,23.3
2022-12-31T08:39:39.769Z,23.4
2022-12-31T08:40:42.561Z,23.4
2022-12-31T08:41:44.790Z,23.4
2022-12-31T08:42:47.327Z,23.3
2022-12-31T08:43:49.564Z,23.3
2022-12-31T08:44:51.532Z,23.3
2022-12-31T08:45:54.134Z,23.4
2022-12-31T08:46:56.924Z,23.4
2022-12-31T08:48:00.154Z,23.4
2022-12-31T08:49:02.868Z,23.4
2022-12-31T08:50:05.371Z,23.4
2022-12-31T08:51:07.639Z,23.4
2022-12-31T08:52:09.842Z,23.4
2022-12-31T08:53:12.376Z,23.3
2022-12-31T08:54:14.883Z,23.3
2022-12-31T08:55:17.628Z,23.4
2022-12-31T08:56:20.271Z,23.3
2022-12-31T08:57:22.781Z,23.4
2022-12-31T08:58:25.033Z,23.4
2022-12-31T08:59:27.548Z,23.4
2022-12-31T09:00:30.060Z,23.5
2022-12-31T09:01:32.431Z,23.5
2022-12-31T09:02:35.021Z,23.4
2022-12-31T09:03:37.023Z,23.5
2022-12-31T09:04:38.971Z,23.4
2022-12-31T09:05:41.490Z,23.4
2022-12-31T09:06:43.719Z,23.5
2022-12-31T09:07:45.987Z,23.3
2022-12-31T09:08:47.649Z,23.4
2022-12-31T09:09:49.865Z,23.3
2022-12-31T09:10:52.142Z,23.5
2022-12-31T09:11:54.751Z,23.3
2022-12-31T09:12:57.249Z,23.5
2022-12-31T09:13:59.760Z,23.3
2022-12-31T09:15:02.051Z,23.5
2022-12-31T09:16:04.117Z,23.4
2022-12-31T09:17:06.667Z,23.5
2022-12-31T09:18:08.666Z,23.3
2022-12-31T09:19:11.186Z,23.5
2022-12-31T09:20:13.744Z,23.5
2022-12-31T09:21:15.994Z,23.2
2022-12-31T09:22:18.251Z,23.4
2022-12-31T09:23:20.501Z,23.4
2022-12-31T09:24:23.025Z,23.4
2022-12-31T09:25:25.535Z,23.4
2022-12-31T09:26:27.787Z,23.4
2022-12-31T09:27:30.114Z,23.3
2022-12-31T09:28:32.632Z,23.3
2022-12-31T09:29:35.128Z,23.4
2022-12-31T09:30:36.547Z,23.4
2022-12-31T09:31:38.789Z,23.4
2022-12-31T09:32:41.440Z,23.4
2022-12-31T09:33:43.742Z,23.4
2022-12-31T09:34:46.254Z,23.6
2022-12-31T09:35:48.772Z,23.4
2022-12-31T09:36:51.057Z,23.4
2022-12-31T09:37:53.319Z,23.5
2022-12-31T09:38:55.575Z,23.5
2022-12-31T09:39:57.525Z,23.5
2022-12-31T09:40:59.766Z,23.4
2022-12-31T09:42:02.300Z,23.5
2022-12-31T09:43:04.983Z,23.5
2022-12-31T09:44:07.563Z,23.3
2022-12-31T09:45:10.069Z,23.4
2022-12-31T09:46:12.093Z,23.4
2022-12-31T09:47:14.942Z,23.4
2022-12-31T09:48:17.502Z,23.6
2022-12-31T09:49:19.923Z,23.4
2022-12-31T09:50:22.445Z,23.2
2022-12-31T09:51:25.604Z,23.5
2022-12-31T09:52:28.301Z,23.5
2022-12-31T09:53:30.799Z,23.5
2022-12-31T09:54:32.772Z,23.4
2022-12-31T09:55:35.287Z,23.4
2022-12-31T09:56:37.796Z,23.3
2022-12-31T09:57:40.324Z,23.4
2022-12-31T09:58:43.018Z,23.4
2022-12-31T09:59:45.539Z,23.4
2022-12-31T10:00:48.054Z,23.4
2022-12-31T10:01:50.808Z,23.4
2022-12-31T10:02:53.804Z,23.6
2022-12-31T10:03:56.707Z,23.3
2022-12-31T10:04:59.395Z,23.5
2022-12-31T10:06:01.083Z,23.4
2022-12-31T10:07:03.590Z,23.4
2022-12-31T10:08:06.089Z,23.5
2022-12-31T10:09:08.071Z,23.3
2022-12-31T10:10:10.290Z,23.4
2022-12-31T10:11:12.825Z,23.4
2022-12-31T10:12:15.370Z,23.4
2022-12-31T10:13:17.610Z,23.5
2022-12-31T10:14:20.221Z,23.3
2022-12-31T10:15:22.489Z,23.5
2022-12-31T10:16:24.798Z,23.3
2022-12-31T10:17:27.682Z,23.3
2022-12-31T10:18:29.906Z,23.3
2022-12-31T10:19:32.147Z,23.3
2022-12-31T10:20:36.770Z,23.4
2022-12-31T10:21:39.636Z,23.4
2022-12-31T10:22:42.163Z,23.5
2022-12-31T10:23:44.683Z,23.3
2022-12-31T10:24:46.917Z,23.4
2022-12-31T10:25:49.440Z,23.4
2022-12-31T10:26:53.691Z,23.4
2022-12-31T10:27:55.960Z,23.4
2022-12-31T10:28:58.500Z,23.5
2022-12-31T10:30:01.100Z,23.4
2022-12-31T10:31:03.661Z,23.3
2022-12-31T10:32:06.446Z,23.4
2022-12-31T10:33:08.680Z,23.4
2022-12-31T10:34:11.216Z,23.4
2022-12-31T10:35:13.162Z,23.4
2022-12-31T10:36:15.732Z,23.5
2022-12-31T10:37:18.488Z,23.5
2022-12-31T10:38:20.993Z,23.3
2022-12-31T10:39:24.560Z,23.4
2022-12-31T10:40:26.951Z,23.4
2022-12-31T10:41:29.179Z,23.3
2022-12-31T10:42:31.143Z,23.4
2022-12-31T10:43:33.653Z,23.4
2022-12-31T10:44:35.872Z,23.5
2022-12-31T10:45:38.548Z,23.4
2022-12-31T10:46:41.072Z,23.4
2022-12-31T10:47:43.527Z,23.4
2022-12-31T10:48:45.737Z,23.5
2022-12-31T10:49:47.983Z,23.3
2022-12-31T10:50:50.515Z,23.5
2022-12-31T10:51:53.041Z,23.5
2022-12-31T10:52:55.014Z,23.5
2022-12-31T10:53:57.553Z,23.4
2022-12-31T10:55:00.096Z,23.3
2022-12-31T10:56:02.331Z,23.5
2022-12-31T10:57:04.559Z,23.5
2022-12-31T10:58:06.804Z,23.5
2022-12-31T10:59:09.043Z,23.5
2022-12-31T11:00:11.598Z,23.5
2022-12-31T11:01:14.376Z,23.4
2022-12-31T11:02:16.834Z,23.4
2022-12-31T11:03:25.269Z,23.4
2022-12-31T11:04:25.261Z,23.4
2022-12-31T11:05:27.838Z,23.4
2022-12-31T11:06:30.341Z,23.4
2022-12-31T11:07:32.645Z,23.4
2022-12-31T11:08:35.161Z,23.4
2022-12-31T11:09:37.125Z,23.6
2022-12-31T11:10:39.654Z,23.3
2022-12-31T11:11:42.165Z,23.5
2022-12-31T11:12:44.131Z,23.4
2022-12-31T11:13:46.666Z,23.4
2022-12-31T11:14:48.349Z,23.4
2022-12-31T11:15:50.897Z,23.4
2022-12-31T11:16:53.452Z,23.4
2022-12-31T11:17:55.948Z,23.4
2022-12-31T11:18:58.473Z,23.3
2022-12-31T11:20:00.987Z,23.4
2022-12-31T11:21:03.280Z,23.3
2022-12-31T11:22:05.827Z,23.4
2022-12-31T11:23:08.089Z,23.4
2022-12-31T11:24:10.606Z,23.3
2022-12-31T11:25:12.816Z,23.5
2022-12-31T11:26:15.316Z,23.4
2022-12-31T11:27:17.806Z,23.5
2022-12-31T11:28:20.333Z,23.4
2022-12-31T11:29:22.890Z,23.4
2022-12-31T11:30:25.435Z,23.5
2022-12-31T11:31:27.756Z,23.4
2022-12-31T11:32:30.678Z,23.4
2022-12-31T11:33:32.885Z,23.4
2022-12-31T11:34:35.402Z,23.5
2022-12-31T11:35:37.440Z,23.4
2022-12-31T11:36:39.722Z,23.4
2022-12-31T11:37:42.329Z,23.6
2022-12-31T11:38:44.927Z,23.5
2022-12-31T11:39:47.443Z,23.4
2022-12-31T11:40:49.972Z,23.5
2022-12-31T11:41:52.200Z,23.4
2022-12-31T11:42:54.435Z,23.5
2022-12-31T11:43:56.686Z,23.4
2022-12-31T11:44:58.979Z,23.4
2022-12-31T11:46:01.289Z,23.4
2022-12-31T11:47:04.059Z,23.3
2022-12-31T11:49:11.639Z,23.3
2022-12-31T11:50:13.936Z,23.3
2022-12-31T11:51:16.555Z,23.5
2022-12-31T11:52:21.511Z,23.5
2022-12-31T11:53:24.044Z,23.4
2022-12-31T11:54:26.586Z,23.3
2022-12-31T11:55:28.843Z,23.4
2022-12-31T11:56:31.400Z,23.3
2022-12-31T11:57:33.645Z,23.5
2022-12-31T11:58:36.169Z,23.3
2022-12-31T11:59:38.700Z,23.3
2022-12-31T12:00:41.237Z,23.4
2022-12-31T12:01:43.528Z,23.5
2022-12-31T12:02:45.842Z,23.4
2022-12-31T12:03:48.730Z,23.4
2022-12-31T12:04:51.224Z,23.4
2022-12-31T12:05:53.511Z,23.5
2022-12-31T12:06:56.043Z,23.2
2022-12-31T12:07:58.262Z,23.5
2022-12-31T12:09:00.768Z,23.3
2022-12-31T12:10:03.377Z,23.4
2022-12-31T12:11:05.346Z,23.4
2022-12-31T12:12:07.569Z,23.4
2022-12-31T12:13:09.821Z,23.4
2022-12-31T12:14:12.365Z,23.3
2022-12-31T12:15:14.611Z,23.5
2022-12-31T12:16:17.390Z,23.3
2022-12-31T12:17:20.077Z,23.3
2022-12-31T12:18:22.627Z,23.3
2022-12-31T12:19:25.223Z,23.5
2022-12-31T12:20:27.753Z,23.4
2022-12-31T12:21:30.005Z,23.3
2022-12-31T12:22:32.535Z,23.4
2022-12-31T12:23:35.043Z,23.5
2022-12-31T12:24:37.358Z,23.5
2022-12-31T12:25:39.929Z,23.4
2022-12-31T12:26:42.479Z,23.4
2022-12-31T12:27:44.728Z,23.4
2022-12-31T12:28:46.952Z,23.4
2022-12-31T12:29:49.470Z,23.4
2022-12-31T12:30:52.039Z,23.4
2022-12-31T12:31:54.550Z,23.5
2022-12-31T12:32:56.484Z,23.4
2022-12-31T12:33:59.083Z,23.4
2022-12-31T12:35:01.751Z,23.4
2022-12-31T12:36:03.443Z,23.5
2022-12-31T12:37:05.137Z,23.4
2022-12-31T12:38:07.715Z,23.4
2022-12-31T12:39:09.672Z,23.4
2022-12-31T12:40:12.003Z,23.4
2022-12-31T12:41:14.271Z,23.6
2022-12-31T12:42:16.514Z,23.3
2022-12-31T12:43:18.749Z,23.4
2022-12-31T12:44:21.275Z,23.4
2022-12-31T12:45:23.787Z,23.5
2022-12-31T12:46:26.356Z,23.5
2022-12-31T12:47:29.138Z,23.4
2022-12-31T12:48:31.653Z,23.4
2022-12-31T12:49:34.204Z,23.4
2022-12-31T12:50:36.812Z,23.5
2022-12-31T12:51:39.107Z,23.4
2022-12-31T12:52:41.664Z,23.4
2022-12-31T12:53:44.210Z,23.4
2022-12-31T12:54:46.720Z,23.4
2022-12-31T12:55:48.994Z,23.5
2022-12-31T12:56:51.219Z,23.5
2022-12-31T12:57:53.722Z,23.3
2022-12-31T12:58:55.937Z,23.4
2022-12-31T12:59:58.488Z,23.4
2022-12-31T13:01:00.269Z,23.4
2022-12-31T13:02:03.530Z,23.5
2022-12-31T13:03:06.939Z,23.5
2022-12-31T13:05:14.563Z,23.5
2022-12-31T13:06:17.194Z,23.4
2022-12-31T13:07:19.173Z,23.4
2022-12-31T13:08:21.710Z,23.5
2022-12-31T13:09:24.206Z,23.3
2022-12-31T13:10:26.439Z,23.3
2022-12-31T13:11:28.697Z,23.3
2022-12-31T13:12:42.925Z,23.4
2022-12-31T13:13:36.185Z,23.4
2022-12-31T13:14:38.715Z,23.5
2022-12-31T13:15:41.221Z,23.4
2022-12-31T13:16:43.478Z,23.5
2022-12-31T13:17:51.063Z,23.4
2022-12-31T13:18:51.484Z,23.5
2022-12-31T13:19:54.017Z,23.4
2022-12-31T13:20:56.550Z,23.4
2022-12-31T13:21:59.186Z,23.4
2022-12-31T13:23:01.433Z,23.5
2022-12-31T13:24:03.702Z,23.4
2022-12-31T13:25:06.232Z,23.4
2022-12-31T13:26:08.515Z,23.4
2022-12-31T13:27:11.023Z,23.5
2022-12-31T13:28:13.327Z,23.4
2022-12-31T13:29:15.839Z,23.5
2022-12-31T13:30:18.054Z,23.3
2022-12-31T13:31:20.613Z,23.5
2022-12-31T13:32:23.364Z,23.4
2022-12-31T13:33:25.893Z,23.5
2022-12-31T13:34:28.440Z,23.4
2022-12-31T13:35:30.974Z,23.4
2022-12-31T13:36:33.218Z,23.4
2022-12-31T13:37:35.848Z,23.5
2022-12-31T13:38:38.360Z,23.3
2022-12-31T13:39:40.871Z,23.5
2022-12-31T13:40:42.858Z,23.5
2022-12-31T13:41:45.374Z,23.3
2022-12-31T13:42:47.893Z,23.4
2022-12-31T13:43:51.067Z,23.3
2022-12-31T13:44:53.745Z,23.4
2022-12-31T13:45:55.989Z,23.5
2022-12-31T13:46:58.860Z,23.3
2022-12-31T13:48:01.431Z,23.4
2022-12-31T13:49:03.643Z,23.4
2022-12-31T13:50:09.560Z,23.4
2022-12-31T13:51:10.869Z,23.4
2022-12-31T13:52:13.129Z,23.4
2022-12-31T13:53:15.739Z,23.5
2022-12-31T13:54:17.997Z,23.4